Shattuckville, Massachusetts
Current Conditions -  °F | °C
As of 4:52 AM on Friday 24 Oct 2014 (Local Time) from KORE Reporting Station
Light Rain Light Rain  
Wind Chill: 44°   Ceiling: 1200
Heat Index: 47°   Visibility: 10mi
Dew Point: 45°   Wind: 7mph
Humidity: 93%   Direction: 320°NW
Pressure: 29.72"   Gusts: NA
Location:  42.64°N, 72.73°W
Report Text: KORE 240852Z AUTO 32006KT 10SM -RA BKN012 OVC027 08/07 A2972 RMK AO2 RAB10 SLP067 P0002 60002 T00830072 55001
Loading
Personal Weather Stations






























Interactive Weather Map
Tropical Storm Tracking
New forecast layout! Learn more

10-Day Weather Forecast

Advertisements
Track Severe Weather on mobile